Hopkinton, MA

3:23 AM EST on November 27, 2014 (GMT -0500)
Worcester Regional | Change Station
CLOSE
Current Station
Airport
Location: Worcester,
Elevation: 1007 ft
Nearby Weather Stations

Elev 1007 ft 42.27 °N, 71.87 °W | Updated 22 minutes ago

Overcast
Overcast
30 °F
Feels Like 20 °F
N
13
Wind Variable Wind from NW

Today
High -- | Low -- °F
--% Chance of Precip.
Yesterday
High -- | Low -- °F
Precip. -- in
6:50 AM 4:16 PM
Waxing Crescent, 27% visible
Pressure 29.74 in
Visibility 5.0 miles
Clouds Mostly Cloudy 2800 ft
Mostly Cloudy 7500 ft
Overcast 9000 ft
Windchill 20 °F
Dew Point 28 °F
Humidity 92%
Rainfall 0.06 in
Snow Depth Not available.
UV 0 out of 12
Pollen .10 out of 12
Air Quality Not available.
Flu Activity Not available.
SPECI KORH 270801Z AUTO 32011KT 5SM -SN BR BKN028 BKN075 OVC090 M01/M02 A2974 RMK AO2 P0000 T10111022

More Conditions Fewer Conditions

Pressure 29.74 in
Visibility 5.0 miles
Clouds Mostly Cloudy 2800 ft
Mostly Cloudy 7500 ft
Overcast 9000 ft
Windchill 20 °F
Dew Point 28 °F
Humidity 92%
Rainfall 0.06 in
Snow Depth Not available.
UV 0 out of 12
Pollen .10 out of 12
Air Quality Not available.
Flu Activity Not available.
SPECI KORH 270801Z AUTO 32011KT 5SM -SN BR BKN028 BKN075 OVC090 M01/M02 A2974 RMK AO2 P0000 T10111022

More Conditions Fewer Conditions

10-Day Weather Forecast

Almanac

Astronomy

Nov. 27, 2014 Rise Set
Actual Time
Civil Twilight
Nautical Twilight
Astronomical Twilight
Moon
Length of Visible Light
Length of Day
Tomorrow will be .
, % of the Moon is Illuminated

Today's Extremes

State Highs State Lows

Community

WunderPhotos

Upload Photos

1,773,965 photos uploaded!

WunderBlogs® & News

Nearby

Air Quality

  Air Quality AQ Index Pollutant
Not available.

Snow Depth

Station Depth Elevation

Earthquake Activity

City Distance Mag. Time & Date
Minimum magnitude displayed is 2.5.

Coastal Water Temperatures

Place Temperature

Nearby Weather Stations